createdAt,value
2022-11-06T00:02:09.832Z,101233.63
2022-11-06T00:04:36.871Z,101223.63
2022-11-06T00:07:03.999Z,101248.44
2022-11-06T00:09:31.039Z,101254.56
2022-11-06T00:11:58.335Z,101247.88
2022-11-06T00:14:25.786Z,101232.94
2022-11-06T00:16:52.870Z,101243.63
2022-11-06T00:19:19.958Z,101229.50
2022-11-06T00:21:47.065Z,101246.63
2022-11-06T00:24:15.816Z,101240.97
2022-11-06T00:26:43.663Z,101212.47
2022-11-06T00:29:14.553Z,101226.84
2022-11-06T00:31:41.768Z,101228.94
2022-11-06T00:34:10.960Z,101241.41
2022-11-06T00:36:38.612Z,101249.41
2022-11-06T00:39:06.161Z,101231.94
2022-11-06T00:41:33.188Z,101240.72
2022-11-06T00:44:01.962Z,101246.53
2022-11-06T00:46:29.564Z,101240.09
2022-11-06T00:48:57.045Z,101238.06
2022-11-06T00:51:27.867Z,101250.72
2022-11-06T00:53:57.686Z,101240.19
2022-11-06T00:56:25.461Z,101236.28
2022-11-06T00:58:53.375Z,101247.06
2022-11-06T01:01:23.362Z,101253.09
2022-11-06T01:03:56.131Z,101255.66
2022-11-06T01:06:25.423Z,101253.34
2022-11-06T01:08:53.271Z,101231.38
2022-11-06T01:11:37.512Z,101241.50
2022-11-06T01:14:15.584Z,101229.50
2022-11-06T01:16:42.723Z,101220.72
2022-11-06T01:19:12.117Z,101125.91
2022-11-06T01:21:40.983Z,101174.97
2022-11-06T01:24:15.496Z,101234.75
2022-11-06T01:27:04.794Z,101242.66
2022-11-06T01:29:30.640Z,101097.34
2022-11-06T01:31:57.807Z,101247.88
2022-11-06T01:34:24.936Z,101246.53
2022-11-06T01:36:52.618Z,101261.34
2022-11-06T01:39:20.207Z,101253.66
2022-11-06T01:41:50.237Z,101260.47
2022-11-06T01:44:36.025Z,101261.22
2022-11-06T01:47:15.796Z,101256.00
2022-11-06T01:49:42.990Z,101257.13
2022-11-06T01:52:12.800Z,101247.44
2022-11-06T01:54:43.567Z,101238.50
2022-11-06T01:57:11.923Z,101244.19
2022-11-06T01:59:44.106Z,101249.31
2022-11-06T02:02:12.241Z,101245.09
2022-11-06T02:04:43.506Z,101249.44
2022-11-06T02:07:12.178Z,101082.88
2022-11-06T02:09:39.489Z,101220.38
2022-11-06T02:12:47.171Z,101236.28
2022-11-06T02:16:12.998Z,101226.28
2022-11-06T02:18:58.403Z,101226.72
2022-11-06T02:21:51.983Z,101118.13
2022-11-06T02:24:46.900Z,101247.00
2022-11-06T02:27:20.076Z,101185.44
2022-11-06T02:30:02.694Z,101232.94
2022-11-06T02:32:36.504Z,101244.22
2022-11-06T02:35:13.591Z,101240.75
2022-11-06T02:37:44.712Z,101240.88
2022-11-06T02:40:14.764Z,101237.31
2022-11-06T02:42:46.557Z,101225.06
2022-11-06T02:45:17.413Z,101239.41
2022-11-06T02:47:49.388Z,101256.69
2022-11-06T02:50:30.408Z,101236.41
2022-11-06T02:53:02.434Z,101216.94
2022-11-06T02:55:41.762Z,101229.19
2022-11-06T02:58:14.628Z,101235.84
2022-11-06T03:00:47.487Z,101228.75
2022-11-06T03:03:23.812Z,101233.06
2022-11-06T03:05:56.694Z,101226.81
2022-11-06T03:08:39.818Z,101226.72
2022-11-06T03:11:12.633Z,101225.72
2022-11-06T03:13:49.249Z,101188.34
2022-11-06T03:16:47.943Z,101228.75
2022-11-06T03:19:48.420Z,101222.06
2022-11-06T03:22:27.010Z,101205.47
2022-11-06T03:25:02.847Z,101226.38
2022-11-06T03:27:34.957Z,101197.13
2022-11-06T03:30:13.842Z,101222.94
2022-11-06T03:32:52.319Z,101214.38
2022-11-06T03:35:26.775Z,101221.16
2022-11-06T03:38:30.920Z,101210.03
2022-11-06T03:41:11.764Z,101176.78
2022-11-06T03:43:43.197Z,101193.56
2022-11-06T03:46:16.259Z,101195.91
2022-11-06T03:49:06.490Z,101212.34
2022-11-06T03:52:13.356Z,101210.91
2022-11-06T03:54:47.918Z,101196.78
2022-11-06T03:57:22.866Z,101207.69
2022-11-06T03:59:56.155Z,101207.91
2022-11-06T04:02:26.226Z,101209.59
2022-11-06T04:04:59.035Z,101223.03
2022-11-06T04:07:39.152Z,101117.25
2022-11-06T04:10:29.272Z,101216.28
2022-11-06T04:13:17.836Z,101209.13
2022-11-06T04:15:51.173Z,101157.72
2022-11-06T04:18:20.100Z,101210.38
2022-11-06T04:21:18.758Z,101109.34
2022-11-06T04:24:21.316Z,101209.13
2022-11-06T04:26:56.655Z,101219.38
2022-11-06T04:29:37.787Z,101221.50
2022-11-06T04:32:11.197Z,101226.41
2022-11-06T04:35:10.702Z,101129.78
2022-11-06T04:38:00.198Z,101178.66
2022-11-06T04:40:37.477Z,101128.56
2022-11-06T04:43:34.394Z,101214.91
2022-11-06T04:46:05.227Z,101224.72
2022-11-06T04:48:33.228Z,101222.72
2022-11-06T04:51:05.015Z,101224.16
2022-11-06T04:53:33.697Z,101213.69
2022-11-06T04:56:09.497Z,101214.81
2022-11-06T04:58:36.554Z,101241.84
2022-11-06T05:01:03.670Z,101222.34
2022-11-06T05:03:30.781Z,101241.84
2022-11-06T05:05:57.825Z,101246.19
2022-11-06T05:08:26.105Z,101226.25
2022-11-06T05:10:53.040Z,101234.16
2022-11-06T05:13:20.165Z,101197.66
2022-11-06T05:15:47.341Z,101202.19
2022-11-06T05:18:14.593Z,101249.28
2022-11-06T05:20:42.063Z,101242.16
2022-11-06T05:23:09.191Z,101238.41
2022-11-06T05:25:38.696Z,101246.38
2022-11-06T05:28:07.260Z,101214.56
2022-11-06T05:30:37.700Z,101233.13
2022-11-06T05:33:04.729Z,101199.66
2022-11-06T05:35:31.781Z,101218.25
2022-11-06T05:38:02.895Z,101243.63
2022-11-06T05:40:30.271Z,101235.50
2022-11-06T05:42:57.381Z,101236.72
2022-11-06T05:45:24.303Z,101195.34
2022-11-06T05:47:51.344Z,101238.19
2022-11-06T05:50:18.573Z,101231.06
2022-11-06T05:52:45.553Z,101240.63
2022-11-06T05:55:15.096Z,101209.69
2022-11-06T05:57:42.861Z,101226.72
2022-11-06T06:00:12.681Z,101230.53
2022-11-06T06:02:40.296Z,101230.94
2022-11-06T06:05:08.171Z,101188.44
2022-11-06T06:07:35.584Z,101206.16
2022-11-06T06:10:02.676Z,101144.94
2022-11-06T06:12:30.005Z,101136.72
2022-11-06T06:14:57.113Z,101199.78
2022-11-06T06:17:24.298Z,101130.69
2022-11-06T06:19:51.266Z,101212.47
2022-11-06T06:22:18.862Z,101201.34
2022-11-06T06:24:46.096Z,101097.78
2022-11-06T06:27:13.093Z,101174.63
2022-11-06T06:29:40.144Z,101126.13
2022-11-06T06:32:07.284Z,101210.13
2022-11-06T06:34:34.275Z,101214.91
2022-11-06T06:37:01.189Z,101215.81
2022-11-06T06:39:28.173Z,101112.69
2022-11-06T06:41:55.153Z,101221.50
2022-11-06T06:44:22.109Z,101210.59
2022-11-06T06:46:49.001Z,101089.31
2022-11-06T06:49:16.080Z,101204.22
2022-11-06T06:51:43.317Z,101209.00
2022-11-06T06:54:10.518Z,101211.81
2022-11-06T06:56:37.532Z,101200.78
2022-11-06T06:59:04.568Z,101194.53
2022-11-06T07:01:31.789Z,101199.53
2022-11-06T07:04:04.000Z,101196.19
2022-11-06T07:06:31.514Z,101212.00
2022-11-06T07:09:00.006Z,101203.34
2022-11-06T07:11:27.038Z,101187.19
2022-11-06T07:13:54.166Z,101228.25
2022-11-06T07:16:21.972Z,101204.13
2022-11-06T07:18:49.109Z,101091.19
2022-11-06T07:21:16.187Z,101212.69
2022-11-06T07:23:43.314Z,101135.34
2022-11-06T07:26:10.460Z,101217.66
2022-11-06T07:28:37.735Z,101187.78
2022-11-06T07:31:07.829Z,101141.06
2022-11-06T07:33:35.653Z,101198.75
2022-11-06T07:36:10.437Z,101216.00
2022-11-06T07:38:39.295Z,101220.03
2022-11-06T07:41:09.268Z,101220.13
2022-11-06T07:43:36.840Z,101218.56
2022-11-06T07:46:06.814Z,101172.75
2022-11-06T07:48:34.443Z,101203.19
2022-11-06T07:51:06.585Z,101206.88
2022-11-06T07:53:33.977Z,101208.91
2022-11-06T07:56:01.423Z,101184.81
2022-11-06T07:58:28.710Z,101177.91
2022-11-06T08:00:58.599Z,101206.63
2022-11-06T08:03:30.079Z,101167.94
2022-11-06T08:06:03.158Z,101187.38
2022-11-06T08:08:31.557Z,101184.94
2022-11-06T08:11:09.425Z,101188.06
2022-11-06T08:13:38.724Z,101180.03
2022-11-06T08:16:10.660Z,101208.03
2022-11-06T08:18:38.467Z,101202.72
2022-11-06T08:21:07.148Z,101205.03
2022-11-06T08:23:35.608Z,101214.06
2022-11-06T08:26:05.538Z,101190.13
2022-11-06T08:28:32.551Z,101193.72
2022-11-06T08:31:03.916Z,101194.94
2022-11-06T08:33:30.955Z,101189.13
2022-11-06T08:36:01.836Z,101188.34
2022-11-06T08:38:28.917Z,101201.69
2022-11-06T08:40:56.037Z,101212.72
2022-11-06T08:43:27.510Z,101161.22
2022-11-06T08:45:54.545Z,101158.66
2022-11-06T08:48:21.521Z,101178.34
2022-11-06T08:50:48.709Z,101100.19
2022-11-06T08:53:16.275Z,101205.38
2022-11-06T08:55:44.738Z,101081.38
2022-11-06T08:58:11.794Z,101180.78
2022-11-06T09:00:38.896Z,101148.84
2022-11-06T09:03:10.139Z,101177.59
2022-11-06T09:05:41.624Z,101157.78
2022-11-06T09:08:09.802Z,101169.44
2022-11-06T09:10:38.009Z,101189.25
2022-11-06T09:13:05.099Z,101167.56
2022-11-06T09:15:32.194Z,101091.47
2022-11-06T09:17:59.256Z,101152.28
2022-11-06T09:20:27.142Z,101085.81
2022-11-06T09:22:54.931Z,101190.16
2022-11-06T09:25:22.084Z,101158.03
2022-11-06T09:27:58.482Z,101165.63
2022-11-06T09:30:28.438Z,101166.06
2022-11-06T09:32:58.265Z,101174.59
2022-11-06T09:35:26.762Z,101157.38
2022-11-06T09:37:53.815Z,101158.25
2022-11-06T09:40:27.008Z,101171.59
2022-11-06T09:43:07.770Z,101095.97
2022-11-06T09:45:38.965Z,101148.50
2022-11-06T09:48:24.692Z,101168.19
2022-11-06T09:51:30.175Z,101148.16
2022-11-06T09:54:21.769Z,101150.34
2022-11-06T09:56:54.440Z,101155.03
2022-11-06T09:59:22.104Z,101125.53
2022-11-06T10:01:54.513Z,101152.53
2022-11-06T10:04:36.777Z,101168.22
2022-11-06T10:07:30.449Z,101160.06
2022-11-06T10:09:58.193Z,101149.25
2022-11-06T10:12:44.680Z,101152.25
2022-11-06T10:15:30.791Z,101148.44
2022-11-06T10:18:05.937Z,101141.66
2022-11-06T10:21:02.713Z,101122.19
2022-11-06T10:23:39.202Z,101146.00
2022-11-06T10:26:28.689Z,101150.06
2022-11-06T10:29:14.319Z,101140.44
2022-11-06T10:31:55.732Z,101147.22
2022-11-06T10:34:32.547Z,101146.44
2022-11-06T10:37:12.341Z,101119.53
2022-11-06T10:39:40.303Z,101127.19
2022-11-06T10:42:15.156Z,101060.13
2022-11-06T10:44:44.650Z,101111.75
2022-11-06T10:47:47.621Z,101140.47
2022-11-06T10:50:17.281Z,101114.56
2022-11-06T10:52:56.784Z,101110.75
2022-11-06T10:55:48.598Z,101108.03
2022-11-06T10:58:21.632Z,101145.19
2022-11-06T11:00:50.546Z,101146.97
2022-11-06T11:03:34.724Z,101120.72
2022-11-06T11:06:03.015Z,101060.91
2022-11-06T11:08:49.446Z,101124.09
2022-11-06T11:11:27.485Z,100989.09
2022-11-06T11:13:57.411Z,101146.59
2022-11-06T11:16:28.040Z,101136.97
2022-11-06T11:19:24.398Z,101129.19
2022-11-06T11:21:59.304Z,101134.44
2022-11-06T11:24:26.998Z,101140.78
2022-11-06T11:27:05.782Z,101116.06
2022-11-06T11:29:50.198Z,101101.66
2022-11-06T11:32:20.837Z,101101.47
2022-11-06T11:34:56.911Z,101109.94
2022-11-06T11:37:33.415Z,101100.34
2022-11-06T11:40:36.710Z,101005.47
2022-11-06T11:43:23.438Z,101086.56
2022-11-06T11:46:17.549Z,101104.28
2022-11-06T11:48:58.580Z,101095.28
2022-11-06T11:51:38.511Z,101051.75
2022-11-06T11:54:17.986Z,101109.69
2022-11-06T11:57:05.356Z,101112.34
2022-11-06T11:59:39.817Z,100929.53
2022-11-06T12:02:34.592Z,101082.41
2022-11-06T12:05:07.323Z,101131.88
2022-11-06T12:07:43.431Z,101099.72
2022-11-06T12:10:21.696Z,101097.66
2022-11-06T12:12:51.828Z,101102.22
2022-11-06T12:15:40.650Z,101070.22
2022-11-06T12:18:14.127Z,101086.59
2022-11-06T12:20:49.647Z,101099.59
2022-11-06T12:23:25.245Z,101091.03
2022-11-06T12:26:06.722Z,101033.56
2022-11-06T12:28:38.259Z,101074.25
2022-11-06T12:31:16.112Z,101086.34
2022-11-06T12:34:06.543Z,100982.13
2022-11-06T12:36:39.610Z,101045.66
2022-11-06T12:39:14.634Z,101079.56
2022-11-06T12:41:45.470Z,101026.41
2022-11-06T12:44:14.868Z,101026.41
2022-11-06T12:46:55.858Z,101071.59
2022-11-06T12:49:48.854Z,100980.44
2022-11-06T12:52:29.929Z,101037.94
2022-11-06T12:55:03.053Z,101069.63
2022-11-06T12:57:55.060Z,101069.50
2022-11-06T13:00:31.432Z,101040.97
2022-11-06T13:03:07.514Z,100946.22
2022-11-06T13:06:05.930Z,101061.38
2022-11-06T13:08:40.909Z,101057.81
2022-11-06T13:11:32.008Z,101054.66
2022-11-06T13:14:24.655Z,101054.66
2022-11-06T13:17:11.366Z,101079.91
2022-11-06T13:19:56.247Z,101028.25
2022-11-06T13:22:38.184Z,101080.38
2022-11-06T13:25:39.211Z,101055.28
2022-11-06T13:28:26.816Z,101068.25
2022-11-06T13:30:56.124Z,101054.28
2022-11-06T13:33:36.645Z,100976.25
2022-11-06T13:36:04.381Z,101069.94
2022-11-06T13:39:05.696Z,101063.38
2022-11-06T13:41:32.808Z,101049.72
2022-11-06T13:44:16.232Z,101043.72
2022-11-06T13:47:07.971Z,101046.25
2022-11-06T13:49:56.044Z,101058.25
2022-11-06T13:52:35.127Z,100950.13
2022-11-06T13:55:28.872Z,101055.91
2022-11-06T13:58:14.289Z,100994.47
2022-11-06T14:00:53.704Z,100963.16
2022-11-06T14:03:26.684Z,101056.69
2022-11-06T14:06:19.017Z,101056.69
2022-11-06T14:09:13.768Z,101052.91
2022-11-06T14:11:44.335Z,101034.22
2022-11-06T14:14:25.302Z,100948.91
2022-11-06T14:17:13.065Z,101043.09
2022-11-06T14:19:45.035Z,100981.88
2022-11-06T14:22:30.224Z,101046.88
2022-11-06T14:25:01.509Z,100936.25
2022-11-06T14:27:30.179Z,101050.09
2022-11-06T14:30:02.613Z,101011.97
2022-11-06T14:32:36.210Z,101037.50
2022-11-06T14:35:31.211Z,101041.50
2022-11-06T14:38:10.898Z,101039.25
2022-11-06T14:40:38.904Z,100991.13
2022-11-06T14:43:26.947Z,101033.06
2022-11-06T14:46:22.663Z,101030.09
2022-11-06T14:48:56.802Z,101038.13
2022-11-06T14:51:29.477Z,100971.53
2022-11-06T14:54:00.121Z,100910.53
2022-11-06T14:56:30.909Z,100941.84
2022-11-06T14:59:04.418Z,101013.63
2022-11-06T15:01:33.839Z,100985.22
2022-11-06T15:04:05.559Z,101031.66
2022-11-06T15:06:33.232Z,100919.00
2022-11-06T15:09:08.017Z,101031.72
2022-11-06T15:11:47.492Z,101010.06
2022-11-06T15:14:14.966Z,100987.94
2022-11-06T15:16:53.729Z,101003.50
2022-11-06T15:19:25.221Z,101001.28
2022-11-06T15:22:07.148Z,100989.06
2022-11-06T15:24:49.289Z,100955.50
2022-11-06T15:27:19.798Z,100987.25
2022-11-06T15:29:52.109Z,101004.34
2022-11-06T15:32:23.032Z,100987.06
2022-11-06T15:35:09.621Z,100994.19
2022-11-06T15:37:42.262Z,101004.81
2022-11-06T15:40:31.610Z,101006.63
2022-11-06T15:43:05.465Z,100898.13
2022-11-06T15:45:32.590Z,100979.75
2022-11-06T15:48:03.194Z,100993.06
2022-11-06T15:50:31.574Z,100978.16
2022-11-06T15:53:16.437Z,100978.94
2022-11-06T15:55:45.794Z,100985.34
2022-11-06T15:58:18.938Z,100968.09
2022-11-06T16:00:46.388Z,100884.16
2022-11-06T16:03:18.189Z,100958.88
2022-11-06T16:05:46.902Z,100995.97
2022-11-06T16:08:15.787Z,100936.81
2022-11-06T16:10:44.946Z,100910.50
2022-11-06T16:13:14.767Z,100966.63
2022-11-06T16:15:45.550Z,100860.31
2022-11-06T16:18:26.206Z,100949.00
2022-11-06T16:21:21.079Z,100962.81
2022-11-06T16:23:58.992Z,100936.09
2022-11-06T16:26:32.471Z,100962.72
2022-11-06T16:29:00.829Z,100938.66
2022-11-06T16:31:29.600Z,100912.03
2022-11-06T16:34:31.801Z,100961.03
2022-11-06T16:37:03.762Z,100942.19
2022-11-06T16:39:49.164Z,100959.28
2022-11-06T16:42:22.995Z,100957.81
2022-11-06T16:44:59.900Z,100927.19
2022-11-06T16:47:27.055Z,100844.53
2022-11-06T16:49:56.364Z,100870.50
2022-11-06T16:52:30.424Z,100886.28
2022-11-06T16:55:01.943Z,100956.19
2022-11-06T16:57:56.428Z,100956.91
2022-11-06T17:00:25.135Z,100852.81
2022-11-06T17:02:54.028Z,100949.09
2022-11-06T17:05:24.557Z,100953.31
2022-11-06T17:08:22.786Z,100955.63
2022-11-06T17:10:50.797Z,100949.81
2022-11-06T17:13:20.122Z,100931.25
2022-11-06T17:15:56.505Z,100947.53
2022-11-06T17:18:27.934Z,100855.09
2022-11-06T17:21:00.447Z,100902.34
2022-11-06T17:23:30.105Z,100826.44
2022-11-06T17:26:13.468Z,100935.72
2022-11-06T17:28:40.651Z,100862.13
2022-11-06T17:31:14.594Z,100944.13
2022-11-06T17:33:42.638Z,100953.50
2022-11-06T17:36:18.911Z,100938.13
2022-11-06T17:38:47.054Z,100921.03
2022-11-06T17:41:29.805Z,100945.13
2022-11-06T17:43:58.115Z,100942.56
2022-11-06T17:46:27.382Z,100946.09
2022-11-06T17:48:55.348Z,100937.44
2022-11-06T17:51:42.089Z,100937.81
2022-11-06T17:54:10.082Z,100931.00
2022-11-06T17:56:38.226Z,100930.78
2022-11-06T17:59:06.829Z,100941.34
2022-11-06T18:01:33.984Z,100937.91
2022-11-06T18:04:01.630Z,100941.31
2022-11-06T18:06:29.487Z,100940.16
2022-11-06T18:08:57.361Z,100940.16
2022-11-06T18:11:25.210Z,100909.19
2022-11-06T18:13:55.375Z,100931.56
2022-11-06T18:16:27.610Z,100839.38
2022-11-06T18:18:55.476Z,100917.59
2022-11-06T18:21:22.841Z,100931.34
2022-11-06T18:23:50.514Z,100913.66
2022-11-06T18:26:18.700Z,100906.09
2022-11-06T18:28:45.661Z,100916.56
2022-11-06T18:31:13.414Z,100842.13
2022-11-06T18:33:40.463Z,100908.78
2022-11-06T18:36:10.933Z,100932.84
2022-11-06T18:38:38.958Z,100826.34
2022-11-06T18:41:10.175Z,100929.50
2022-11-06T18:43:37.656Z,100826.16
2022-11-06T18:46:08.086Z,100936.50
2022-11-06T18:48:35.144Z,100813.81
2022-11-06T18:51:33.415Z,100808.88
2022-11-06T18:54:05.145Z,100904.84
2022-11-06T18:56:33.813Z,100917.03
2022-11-06T18:59:00.860Z,100913.50
2022-11-06T19:01:29.739Z,100842.69
2022-11-06T19:03:56.929Z,100905.22
2022-11-06T19:06:24.160Z,100879.97
2022-11-06T19:08:51.132Z,100909.69
2022-11-06T19:11:20.291Z,100899.50
2022-11-06T19:13:48.528Z,100911.53
2022-11-06T19:16:19.448Z,100879.00
2022-11-06T19:21:32.208Z,100917.94
2022-11-06T19:24:03.966Z,100909.47
2022-11-06T19:26:33.650Z,100900.91
2022-11-06T19:29:01.395Z,100918.06
2022-11-06T19:31:29.991Z,100895.97
2022-11-06T19:34:01.534Z,100714.25
2022-11-06T19:36:30.074Z,100902.09
2022-11-06T19:38:58.704Z,100622.25
2022-11-06T19:41:26.940Z,100766.41
2022-11-06T19:43:54.642Z,100884.56
2022-11-06T19:46:26.037Z,100846.28
2022-11-06T19:48:57.012Z,100827.78
2022-11-06T19:51:25.985Z,100825.31
2022-11-06T19:53:54.086Z,100835.97
2022-11-06T19:56:21.954Z,100778.03
2022-11-06T19:58:50.888Z,100888.91
2022-11-06T20:01:19.026Z,100887.53
2022-11-06T20:03:46.530Z,100885.63
2022-11-06T20:06:14.575Z,100886.16
2022-11-06T20:08:41.930Z,100700.34
2022-11-06T20:11:15.307Z,100869.78
2022-11-06T20:13:43.269Z,100795.47
2022-11-06T20:16:19.020Z,100882.41
2022-11-06T20:18:53.859Z,100839.66
2022-11-06T20:21:21.832Z,100754.31
2022-11-06T20:23:49.436Z,100860.63
2022-11-06T20:26:16.492Z,100874.44
2022-11-06T20:28:46.941Z,100870.88
2022-11-06T20:31:16.138Z,100866.03
2022-11-06T20:33:43.272Z,100860.31
2022-11-06T20:36:21.049Z,100853.44
2022-11-06T20:38:48.106Z,100860.09
2022-11-06T20:41:15.268Z,100817.16
2022-11-06T20:43:43.444Z,100865.53
2022-11-06T20:46:11.811Z,100793.31
2022-11-06T20:48:39.121Z,100848.78
2022-11-06T20:51:09.319Z,100849.28
2022-11-06T20:53:36.447Z,100752.06
2022-11-06T20:56:06.983Z,100845.25
2022-11-06T20:58:34.458Z,100840.41
2022-11-06T21:01:06.420Z,100856.78
2022-11-06T21:03:34.651Z,100839.41
2022-11-06T21:06:01.954Z,100736.59
2022-11-06T21:08:29.366Z,100789.47
2022-11-06T21:11:06.154Z,100856.38
2022-11-06T21:13:35.182Z,100759.63
2022-11-06T21:16:08.880Z,100822.38
2022-11-06T21:18:38.209Z,100851.72
2022-11-06T21:21:07.592Z,100812.91
2022-11-06T21:23:35.025Z,100716.72
2022-11-06T21:26:14.349Z,100815.56
2022-11-06T21:28:43.496Z,100753.44
2022-11-06T21:31:13.308Z,100842.06
2022-11-06T21:33:41.964Z,100840.38
2022-11-06T21:36:11.941Z,100814.75
2022-11-06T21:38:39.518Z,100801.16
2022-11-06T21:41:10.502Z,100735.00
2022-11-06T21:43:37.859Z,100825.59
2022-11-06T21:46:07.000Z,100724.38
2022-11-06T21:48:50.122Z,100823.91
2022-11-06T21:51:20.766Z,100705.44
2022-11-06T21:54:07.024Z,100823.94
2022-11-06T21:56:35.545Z,100674.75
2022-11-06T21:59:04.650Z,100821.34
2022-11-06T22:01:32.736Z,100810.19
2022-11-06T22:04:00.057Z,100707.19
2022-11-06T22:06:28.798Z,100814.91
2022-11-06T22:08:58.290Z,100798.94
2022-11-06T22:11:31.278Z,100720.59
2022-11-06T22:14:00.438Z,100804.84
2022-11-06T22:16:30.449Z,100793.69
2022-11-06T22:18:58.496Z,100795.16
2022-11-06T22:21:28.399Z,100795.47
2022-11-06T22:23:56.221Z,100776.88
2022-11-06T22:26:25.705Z,100816.06
2022-11-06T22:28:55.025Z,100804.13
2022-11-06T22:31:22.883Z,100800.78
2022-11-06T22:33:53.691Z,100786.88
2022-11-06T22:36:22.333Z,100697.44
2022-11-06T22:38:49.960Z,100790.00
2022-11-06T22:41:19.626Z,100762.16
2022-11-06T22:43:46.666Z,100789.53
2022-11-06T22:46:23.134Z,100777.50
2022-11-06T22:48:52.082Z,100780.19
2022-11-06T22:51:22.124Z,100765.66
2022-11-06T22:53:50.584Z,100786.31
2022-11-06T22:56:18.039Z,100758.66
2022-11-06T22:58:45.204Z,100793.81
2022-11-06T23:01:12.574Z,100675.72
2022-11-06T23:03:42.953Z,100767.25
2022-11-06T23:06:10.048Z,100772.66
2022-11-06T23:08:42.918Z,100760.53
2022-11-06T23:11:14.561Z,100781.00
2022-11-06T23:13:41.584Z,100740.84
2022-11-06T23:16:14.571Z,100519.41
2022-11-06T23:18:41.708Z,100777.06
2022-11-06T23:21:16.459Z,100782.28
2022-11-06T23:23:44.079Z,100653.69
2022-11-06T23:26:16.835Z,100777.78
2022-11-06T23:28:44.602Z,100693.72
2022-11-06T23:31:13.296Z,100739.88
2022-11-06T23:33:40.507Z,100786.84
2022-11-06T23:36:17.881Z,100598.56
2022-11-06T23:38:45.158Z,100800.03
2022-11-06T23:41:35.686Z,100752.25
2022-11-06T23:44:03.179Z,100780.09
2022-11-06T23:46:32.636Z,100766.75
2022-11-06T23:49:00.145Z,100798.94
2022-11-06T23:51:27.604Z,100736.59
2022-11-06T23:53:55.067Z,100780.81
2022-11-06T23:56:22.065Z,100757.38
2022-11-06T23:58:49.077Z,100764.47
